sensor_id;sensor_type;location;lat;lon;timestamp;pressure;altitude;pressure_sealevel;temperature;humidity
3832;BME280;12460;42.662;23.288;2023-07-31T00:02:25;94204.41;;;24.85;54.29
3832;BME280;12460;42.662;23.288;2023-07-31T00:17:28;94207.88;;;24.56;55.25
3832;BME280;12460;42.662;23.288;2023-07-31T00:32:29;94188.66;;;24.39;57.27
3832;BME280;12460;42.662;23.288;2023-07-31T00:47:34;94187.66;;;24.28;57.07
3832;BME280;12460;42.662;23.288;2023-07-31T01:02:36;94177.38;;;24.21;57.25
3832;BME280;12460;42.662;23.288;2023-07-31T01:17:39;94164.69;;;24.06;57.50
3832;BME280;12460;42.662;23.288;2023-07-31T01:32:42;94158.72;;;23.77;58.52
3832;BME280;12460;42.662;23.288;2023-07-31T01:47:44;94151.03;;;23.61;59.42
3832;BME280;12460;42.662;23.288;2023-07-31T02:02:47;94166.94;;;23.65;59.44
3832;BME280;12460;42.662;23.288;2023-07-31T02:17:49;94169.28;;;23.70;59.44
3832;BME280;12460;42.662;23.288;2023-07-31T02:32:51;94173.56;;;23.69;59.92
3832;BME280;12460;42.662;23.288;2023-07-31T02:47:53;94179.81;;;23.85;58.98
3832;BME280;12460;42.662;23.288;2023-07-31T03:02:55;94197.16;;;23.89;58.54
3832;BME280;12460;42.662;23.288;2023-07-31T03:17:57;94209.06;;;24.01;58.39
3832;BME280;12460;42.662;23.288;2023-07-31T03:32:59;94221.50;;;24.08;58.34
3832;BME280;12460;42.662;23.288;2023-07-31T03:48:01;94235.44;;;24.17;57.53
3832;BME280;12460;42.662;23.288;2023-07-31T04:03:04;94237.16;;;24.26;57.51
3832;BME280;12460;42.662;23.288;2023-07-31T04:18:06;94256.81;;;24.58;56.39
3832;BME280;12460;42.662;23.288;2023-07-31T04:33:09;94248.13;;;24.56;56.23
3832;BME280;12460;42.662;23.288;2023-07-31T04:48:11;94254.75;;;24.60;55.62
3832;BME280;12460;42.662;23.288;2023-07-31T05:03:13;94240.50;;;25.14;54.14
3832;BME280;12460;42.662;23.288;2023-07-31T05:18:15;94236.44;;;26.69;50.25
3832;BME280;12460;42.662;23.288;2023-07-31T05:33:17;94242.34;;;27.43;48.59
3832;BME280;12460;42.662;23.288;2023-07-31T05:48:19;94231.97;;;28.09;45.71
3832;BME280;12460;42.662;23.288;2023-07-31T06:03:21;94237.44;;;31.13;39.78
3832;BME280;12460;42.662;23.288;2023-07-31T06:18:25;94250.84;;;31.99;36.13
3832;BME280;12460;42.662;23.288;2023-07-31T06:33:27;94252.16;;;33.49;33.00
3832;BME280;12460;42.662;23.288;2023-07-31T06:48:29;94254.31;;;33.44;33.34
3832;BME280;12460;42.662;23.288;2023-07-31T07:03:32;94243.88;;;33.96;32.71
3832;BME280;12460;42.662;23.288;2023-07-31T07:18:34;94241.13;;;34.73;30.35
3832;BME280;12460;42.662;23.288;2023-07-31T07:33:38;94225.03;;;36.02;29.13
3832;BME280;12460;42.662;23.288;2023-07-31T07:48:40;94240.13;;;35.67;28.80
3832;BME280;12460;42.662;23.288;2023-07-31T08:03:42;94251.72;;;34.29;31.11
3832;BME280;12460;42.662;23.288;2023-07-31T08:18:44;94244.09;;;36.50;27.46
3832;BME280;12460;42.662;23.288;2023-07-31T08:33:46;94256.63;;;36.89;26.60
3832;BME280;12460;42.662;23.288;2023-07-31T08:48:48;94236.09;;;36.89;27.03
3832;BME280;12460;42.662;23.288;2023-07-31T09:03:51;94249.09;;;36.08;27.44
3832;BME280;12460;42.662;23.288;2023-07-31T09:18:54;94231.34;;;38.47;24.40
3832;BME280;12460;42.662;23.288;2023-07-31T09:33:58;94213.25;;;39.23;24.11
3832;BME280;12460;42.662;23.288;2023-07-31T10:04:11;94199.56;;;38.84;24.19
3832;BME280;12460;42.662;23.288;2023-07-31T10:19:14;94185.88;;;37.46;25.12
3832;BME280;12460;42.662;23.288;2023-07-31T10:34:16;94199.63;;;37.55;25.22
3832;BME280;12460;42.662;23.288;2023-07-31T10:49:21;94179.47;;;38.64;23.42
3832;BME280;12460;42.662;23.288;2023-07-31T11:04:26;94162.34;;;39.78;21.61
3832;BME280;12460;42.662;23.288;2023-07-31T11:19:28;94154.03;;;39.35;22.08
3832;BME280;12460;42.662;23.288;2023-07-31T11:34:30;94147.06;;;38.66;22.28
3832;BME280;12460;42.662;23.288;2023-07-31T11:49:36;94141.81;;;37.78;23.53
3832;BME280;12460;42.662;23.288;2023-07-31T12:04:38;94129.22;;;38.15;23.25
3832;BME280;12460;42.662;23.288;2023-07-31T12:19:40;94115.84;;;37.58;24.36
3832;BME280;12460;42.662;23.288;2023-07-31T12:34:42;94118.31;;;36.31;25.83
3832;BME280;12460;42.662;23.288;2023-07-31T12:49:45;94103.94;;;35.20;26.18
3832;BME280;12460;42.662;23.288;2023-07-31T13:04:47;94090.25;;;35.57;25.63
3832;BME280;12460;42.662;23.288;2023-07-31T13:19:49;94096.75;;;34.41;26.79
3832;BME280;12460;42.662;23.288;2023-07-31T13:34:51;94100.78;;;34.04;27.53
3832;BME280;12460;42.662;23.288;2023-07-31T13:49:53;94083.06;;;34.24;27.20
3832;BME280;12460;42.662;23.288;2023-07-31T14:04:55;94089.94;;;33.86;27.97
3832;BME280;12460;42.662;23.288;2023-07-31T14:19:57;94093.88;;;33.44;28.05
3832;BME280;12460;42.662;23.288;2023-07-31T14:34:59;94081.59;;;33.32;28.62
3832;BME280;12460;42.662;23.288;2023-07-31T14:50:02;94088.38;;;32.82;29.41
3832;BME280;12460;42.662;23.288;2023-07-31T15:05:05;94094.31;;;32.56;30.54
3832;BME280;12460;42.662;23.288;2023-07-31T15:20:07;94103.06;;;32.54;31.21
3832;BME280;12460;42.662;23.288;2023-07-31T15:35:09;94106.75;;;32.12;32.11
3832;BME280;12460;42.662;23.288;2023-07-31T15:50:11;94115.47;;;31.57;32.96
3832;BME280;12460;42.662;23.288;2023-07-31T16:05:13;94120.28;;;30.78;33.71
3832;BME280;12460;42.662;23.288;2023-07-31T16:20:15;94125.72;;;30.12;34.84
3832;BME280;12460;42.662;23.288;2023-07-31T16:35:17;94132.81;;;29.89;35.25
3832;BME280;12460;42.662;23.288;2023-07-31T16:50:19;94138.31;;;29.56;35.71
3832;BME280;12460;42.662;23.288;2023-07-31T17:05:23;94165.59;;;29.31;35.49
3832;BME280;12460;42.662;23.288;2023-07-31T17:20:25;94168.25;;;29.09;36.05
3832;BME280;12460;42.662;23.288;2023-07-31T17:35:27;94180.13;;;28.75;36.16
3832;BME280;12460;42.662;23.288;2023-07-31T17:50:31;94193.34;;;28.36;36.89
3832;BME280;12460;42.662;23.288;2023-07-31T18:05:36;94202.13;;;27.99;38.02
3832;BME280;12460;42.662;23.288;2023-07-31T18:20:38;94217.44;;;27.63;38.76
3832;BME280;12460;42.662;23.288;2023-07-31T18:35:40;94244.16;;;27.26;39.50
3832;BME280;12460;42.662;23.288;2023-07-31T18:50:42;94250.09;;;26.98;39.51
3832;BME280;12460;42.662;23.288;2023-07-31T19:05:44;94240.16;;;26.74;39.97
3832;BME280;12460;42.662;23.288;2023-07-31T19:20:47;94264.19;;;26.53;40.87
3832;BME280;12460;42.662;23.288;2023-07-31T19:35:59;94274.75;;;26.40;41.88
3832;BME280;12460;42.662;23.288;2023-07-31T19:51:01;94268.84;;;26.34;42.14
3832;BME280;12460;42.662;23.288;2023-07-31T20:06:03;94286.47;;;26.18;42.84
3832;BME280;12460;42.662;23.288;2023-07-31T20:21:05;94272.38;;;26.03;43.49
3832;BME280;12460;42.662;23.288;2023-07-31T20:36:07;94278.66;;;25.95;44.12
3832;BME280;12460;42.662;23.288;2023-07-31T20:51:17;94278.84;;;25.74;44.79
3832;BME280;12460;42.662;23.288;2023-07-31T21:06:19;94301.56;;;25.61;45.52
3832;BME280;12460;42.662;23.288;2023-07-31T21:21:22;94305.22;;;25.38;46.59
3832;BME280;12460;42.662;23.288;2023-07-31T21:36:24;94287.03;;;25.06;47.04
3832;BME280;12460;42.662;23.288;2023-07-31T21:51:26;94285.19;;;25.17;46.88
3832;BME280;12460;42.662;23.288;2023-07-31T22:06:28;94289.47;;;25.16;46.96
3832;BME280;12460;42.662;23.288;2023-07-31T22:21:31;94307.31;;;25.10;47.13
3832;BME280;12460;42.662;23.288;2023-07-31T22:36:33;94299.06;;;24.98;47.19
3832;BME280;12460;42.662;23.288;2023-07-31T22:51:35;94291.66;;;24.91;47.18
3832;BME280;12460;42.662;23.288;2023-07-31T23:06:37;94271.16;;;24.79;47.27
3832;BME280;12460;42.662;23.288;2023-07-31T23:21:39;94261.28;;;24.63;47.76
3832;BME280;12460;42.662;23.288;2023-07-31T23:36:41;94253.94;;;24.58;47.60
3832;BME280;12460;42.662;23.288;2023-07-31T23:51:44;94238.22;;;24.37;48.10
